sensor_id;sensor_type;location;lat;lon;timestamp;temperature;humidity
80577;DHT22;69937;52.420;10.538;2024-01-30T00:03:55;5.30;69.90
80577;DHT22;69937;52.420;10.538;2024-01-30T00:08:55;5.30;70.10
80577;DHT22;69937;52.420;10.538;2024-01-30T00:13:56;5.30;70.50
80577;DHT22;69937;52.420;10.538;2024-01-30T00:18:57;5.20;70.30
80577;DHT22;69937;52.420;10.538;2024-01-30T00:23:57;5.00;69.60
80577;DHT22;69937;52.420;10.538;2024-01-30T00:28:58;4.80;69.90
80577;DHT22;69937;52.420;10.538;2024-01-30T00:33:59;4.70;70.40
80577;DHT22;69937;52.420;10.538;2024-01-30T00:38:59;4.60;70.90
80577;DHT22;69937;52.420;10.538;2024-01-30T00:44:00;4.50;70.70
80577;DHT22;69937;52.420;10.538;2024-01-30T00:49:00;4.40;71.50
80577;DHT22;69937;52.420;10.538;2024-01-30T00:54:01;4.30;71.80
80577;DHT22;69937;52.420;10.538;2024-01-30T00:59:01;4.20;72.20
80577;DHT22;69937;52.420;10.538;2024-01-30T01:04:02;4.20;72.70
80577;DHT22;69937;52.420;10.538;2024-01-30T01:09:02;4.20;72.70
80577;DHT22;69937;52.420;10.538;2024-01-30T01:14:04;4.10;72.50
80577;DHT22;69937;52.420;10.538;2024-01-30T01:19:05;4.00;72.70
80577;DHT22;69937;52.420;10.538;2024-01-30T01:24:05;4.00;73.00
80577;DHT22;69937;52.420;10.538;2024-01-30T01:29:06;3.90;73.10
80577;DHT22;69937;52.420;10.538;2024-01-30T01:34:10;3.90;74.10
80577;DHT22;69937;52.420;10.538;2024-01-30T01:39:11;4.00;73.80
80577;DHT22;69937;52.420;10.538;2024-01-30T01:44:12;4.00;73.60
80577;DHT22;69937;52.420;10.538;2024-01-30T01:49:12;3.90;73.40
80577;DHT22;69937;52.420;10.538;2024-01-30T01:54:14;3.90;74.60
80577;DHT22;69937;52.420;10.538;2024-01-30T01:59:16;4.10;75.20
80577;DHT22;69937;52.420;10.538;2024-01-30T02:04:17;4.30;75.10
80577;DHT22;69937;52.420;10.538;2024-01-30T02:09:17;4.50;74.60
80577;DHT22;69937;52.420;10.538;2024-01-30T02:14:19;4.60;74.20
80577;DHT22;69937;52.420;10.538;2024-01-30T02:19:19;4.70;73.80
80577;DHT22;69937;52.420;10.538;2024-01-30T02:24:20;4.70;72.80
80577;DHT22;69937;52.420;10.538;2024-01-30T02:29:20;4.60;72.30
80577;DHT22;69937;52.420;10.538;2024-01-30T02:34:21;4.50;72.90
80577;DHT22;69937;52.420;10.538;2024-01-30T02:39:22;4.50;72.90
80577;DHT22;69937;52.420;10.538;2024-01-30T02:44:22;4.50;73.20
80577;DHT22;69937;52.420;10.538;2024-01-30T02:49:23;4.40;73.00
80577;DHT22;69937;52.420;10.538;2024-01-30T02:54:23;4.30;73.50
80577;DHT22;69937;52.420;10.538;2024-01-30T02:59:24;4.40;74.20
80577;DHT22;69937;52.420;10.538;2024-01-30T03:04:24;4.50;74.20
80577;DHT22;69937;52.420;10.538;2024-01-30T03:09:25;4.50;73.80
80577;DHT22;69937;52.420;10.538;2024-01-30T03:14:25;4.60;73.50
80577;DHT22;69937;52.420;10.538;2024-01-30T03:19:26;4.60;73.20
80577;DHT22;69937;52.420;10.538;2024-01-30T03:24:27;4.50;73.20
80577;DHT22;69937;52.420;10.538;2024-01-30T03:29:27;4.50;73.50
80577;DHT22;69937;52.420;10.538;2024-01-30T03:34:28;4.60;73.40
80577;DHT22;69937;52.420;10.538;2024-01-30T03:39:28;4.70;73.50
80577;DHT22;69937;52.420;10.538;2024-01-30T03:44:29;4.70;73.30
80577;DHT22;69937;52.420;10.538;2024-01-30T03:49:29;4.70;73.10
80577;DHT22;69937;52.420;10.538;2024-01-30T03:54:30;4.70;73.00
80577;DHT22;69937;52.420;10.538;2024-01-30T03:59:30;4.50;73.10
80577;DHT22;69937;52.420;10.538;2024-01-30T04:04:31;4.50;73.40
80577;DHT22;69937;52.420;10.538;2024-01-30T04:09:31;4.40;73.80
80577;DHT22;69937;52.420;10.538;2024-01-30T04:14:32;4.40;74.20
80577;DHT22;69937;52.420;10.538;2024-01-30T04:19:37;4.40;74.60
80577;DHT22;69937;52.420;10.538;2024-01-30T04:24:37;4.40;74.40
80577;DHT22;69937;52.420;10.538;2024-01-30T04:29:38;4.50;74.30
80577;DHT22;69937;52.420;10.538;2024-01-30T04:34:39;4.50;74.40
80577;DHT22;69937;52.420;10.538;2024-01-30T04:39:39;4.50;74.20
80577;DHT22;69937;52.420;10.538;2024-01-30T04:44:40;4.40;74.10
80577;DHT22;69937;52.420;10.538;2024-01-30T04:49:41;4.40;74.40
80577;DHT22;69937;52.420;10.538;2024-01-30T04:54:41;4.40;74.60
80577;DHT22;69937;52.420;10.538;2024-01-30T04:59:42;4.50;74.60
80577;DHT22;69937;52.420;10.538;2024-01-30T05:04:42;4.50;74.70
80577;DHT22;69937;52.420;10.538;2024-01-30T05:09:43;4.50;74.60
80577;DHT22;69937;52.420;10.538;2024-01-30T05:14:43;4.50;74.30
80577;DHT22;69937;52.420;10.538;2024-01-30T05:19:44;4.50;74.20
80577;DHT22;69937;52.420;10.538;2024-01-30T05:24:44;4.40;74.40
80577;DHT22;69937;52.420;10.538;2024-01-30T05:29:45;4.40;74.60
80577;DHT22;69937;52.420;10.538;2024-01-30T05:34:46;4.40;74.90
80577;DHT22;69937;52.420;10.538;2024-01-30T05:39:46;4.50;74.70
80577;DHT22;69937;52.420;10.538;2024-01-30T05:44:47;4.40;73.90
80577;DHT22;69937;52.420;10.538;2024-01-30T05:49:47;4.30;74.60
80577;DHT22;69937;52.420;10.538;2024-01-30T05:54:48;4.30;75.10
80577;DHT22;69937;52.420;10.538;2024-01-30T05:59:48;4.30;74.90
80577;DHT22;69937;52.420;10.538;2024-01-30T06:04:49;4.50;75.60
80577;DHT22;69937;52.420;10.538;2024-01-30T06:09:50;4.70;75.10
80577;DHT22;69937;52.420;10.538;2024-01-30T06:14:50;4.90;74.40
80577;DHT22;69937;52.420;10.538;2024-01-30T06:19:51;5.10;73.50
80577;DHT22;69937;52.420;10.538;2024-01-30T06:24:51;5.30;72.90
80577;DHT22;69937;52.420;10.538;2024-01-30T06:29:52;5.40;72.50
80577;DHT22;69937;52.420;10.538;2024-01-30T06:34:52;5.50;72.10
80577;DHT22;69937;52.420;10.538;2024-01-30T06:39:53;5.50;72.00
80577;DHT22;69937;52.420;10.538;2024-01-30T06:44:54;5.60;71.60
80577;DHT22;69937;52.420;10.538;2024-01-30T06:49:54;5.60;71.20
80577;DHT22;69937;52.420;10.538;2024-01-30T06:54:54;5.70;71.00
80577;DHT22;69937;52.420;10.538;2024-01-30T06:59:55;5.70;70.70
80577;DHT22;69937;52.420;10.538;2024-01-30T07:04:55;5.70;70.70
80577;DHT22;69937;52.420;10.538;2024-01-30T07:09:56;5.70;70.70
80577;DHT22;69937;52.420;10.538;2024-01-30T07:14:56;5.70;70.70
80577;DHT22;69937;52.420;10.538;2024-01-30T07:19:59;5.70;70.60
80577;DHT22;69937;52.420;10.538;2024-01-30T07:25:00;5.70;70.50
80577;DHT22;69937;52.420;10.538;2024-01-30T07:30:01;5.60;70.60
80577;DHT22;69937;52.420;10.538;2024-01-30T07:35:02;5.70;70.50
80577;DHT22;69937;52.420;10.538;2024-01-30T07:40:03;5.70;70.40
80577;DHT22;69937;52.420;10.538;2024-01-30T07:45:04;5.80;70.30
80577;DHT22;69937;52.420;10.538;2024-01-30T07:50:05;5.80;70.10
80577;DHT22;69937;52.420;10.538;2024-01-30T07:55:06;5.90;70.10
80577;DHT22;69937;52.420;10.538;2024-01-30T08:00:09;5.90;70.00
80577;DHT22;69937;52.420;10.538;2024-01-30T08:05:09;6.00;69.80
80577;DHT22;69937;52.420;10.538;2024-01-30T08:10:12;6.10;69.70
80577;DHT22;69937;52.420;10.538;2024-01-30T08:15:13;6.10;69.50
80577;DHT22;69937;52.420;10.538;2024-01-30T08:20:14;6.20;69.40
80577;DHT22;69937;52.420;10.538;2024-01-30T08:25:14;6.20;69.30
80577;DHT22;69937;52.420;10.538;2024-01-30T08:30:15;6.40;69.10
80577;DHT22;69937;52.420;10.538;2024-01-30T08:35:16;6.40;68.80
80577;DHT22;69937;52.420;10.538;2024-01-30T08:40:17;6.50;68.70
80577;DHT22;69937;52.420;10.538;2024-01-30T08:45:17;6.60;68.50
80577;DHT22;69937;52.420;10.538;2024-01-30T08:50:18;6.70;68.20
80577;DHT22;69937;52.420;10.538;2024-01-30T08:55:19;6.80;68.00
80577;DHT22;69937;52.420;10.538;2024-01-30T09:00:19;6.90;67.80
80577;DHT22;69937;52.420;10.538;2024-01-30T09:05:20;7.00;67.60
80577;DHT22;69937;52.420;10.538;2024-01-30T09:10:21;7.20;67.40
80577;DHT22;69937;52.420;10.538;2024-01-30T09:15:21;7.20;67.00
80577;DHT22;69937;52.420;10.538;2024-01-30T09:20:22;7.40;66.90
80577;DHT22;69937;52.420;10.538;2024-01-30T09:25:23;7.50;66.60
80577;DHT22;69937;52.420;10.538;2024-01-30T09:30:23;7.50;66.60
80577;DHT22;69937;52.420;10.538;2024-01-30T09:35:24;7.60;66.60
80577;DHT22;69937;52.420;10.538;2024-01-30T09:40:25;7.70;66.70
80577;DHT22;69937;52.420;10.538;2024-01-30T09:45:26;7.80;66.70
80577;DHT22;69937;52.420;10.538;2024-01-30T09:50:27;7.80;66.50
80577;DHT22;69937;52.420;10.538;2024-01-30T09:55:28;7.80;66.40
80577;DHT22;69937;52.420;10.538;2024-01-30T10:00:28;8.00;66.40
80577;DHT22;69937;52.420;10.538;2024-01-30T10:05:31;8.10;66.00
80577;DHT22;69937;52.420;10.538;2024-01-30T10:10:34;8.40;65.50
80577;DHT22;69937;52.420;10.538;2024-01-30T10:15:38;8.60;64.80
80577;DHT22;69937;52.420;10.538;2024-01-30T10:20:39;8.80;64.40
80577;DHT22;69937;52.420;10.538;2024-01-30T10:25:39;9.00;63.90
80577;DHT22;69937;52.420;10.538;2024-01-30T10:30:40;9.20;63.20
80577;DHT22;69937;52.420;10.538;2024-01-30T10:35:41;9.20;63.10
80577;DHT22;69937;52.420;10.538;2024-01-30T10:40:42;9.40;62.60
80577;DHT22;69937;52.420;10.538;2024-01-30T10:45:47;9.50;62.80
80577;DHT22;69937;52.420;10.538;2024-01-30T10:50:50;9.80;62.30
80577;DHT22;69937;52.420;10.538;2024-01-30T10:55:51;9.90;61.70
80577;DHT22;69937;52.420;10.538;2024-01-30T11:00:53;9.80;61.80
80577;DHT22;69937;52.420;10.538;2024-01-30T11:05:59;9.80;62.00
80577;DHT22;69937;52.420;10.538;2024-01-30T11:11:00;9.80;62.00
80577;DHT22;69937;52.420;10.538;2024-01-30T11:16:02;9.80;62.20
80577;DHT22;69937;52.420;10.538;2024-01-30T11:21:04;9.80;62.10
80577;DHT22;69937;52.420;10.538;2024-01-30T11:26:05;9.80;62.10
80577;DHT22;69937;52.420;10.538;2024-01-30T11:31:06;9.80;62.20
80577;DHT22;69937;52.420;10.538;2024-01-30T11:36:08;9.80;62.30
80577;DHT22;69937;52.420;10.538;2024-01-30T11:41:09;9.80;62.30
80577;DHT22;69937;52.420;10.538;2024-01-30T11:46:09;10.00;62.50
80577;DHT22;69937;52.420;10.538;2024-01-30T11:51:12;9.90;62.30
80577;DHT22;69937;52.420;10.538;2024-01-30T11:56:13;10.00;62.40
80577;DHT22;69937;52.420;10.538;2024-01-30T12:01:14;10.00;62.40
80577;DHT22;69937;52.420;10.538;2024-01-30T12:06:17;10.00;62.50
80577;DHT22;69937;52.420;10.538;2024-01-30T12:11:17;10.00;62.70
80577;DHT22;69937;52.420;10.538;2024-01-30T12:16:18;10.00;62.60
80577;DHT22;69937;52.420;10.538;2024-01-30T12:21:18;10.00;62.50
80577;DHT22;69937;52.420;10.538;2024-01-30T12:26:19;10.00;62.70
80577;DHT22;69937;52.420;10.538;2024-01-30T12:31:26;10.00;62.70
80577;DHT22;69937;52.420;10.538;2024-01-30T12:36:28;10.00;62.60
80577;DHT22;69937;52.420;10.538;2024-01-30T12:41:30;10.00;62.60
80577;DHT22;69937;52.420;10.538;2024-01-30T12:46:30;10.10;62.50
80577;DHT22;69937;52.420;10.538;2024-01-30T12:51:34;10.10;62.30
80577;DHT22;69937;52.420;10.538;2024-01-30T12:56:35;10.10;62.10
80577;DHT22;69937;52.420;10.538;2024-01-30T13:01:36;10.10;62.60
80577;DHT22;69937;52.420;10.538;2024-01-30T13:06:36;10.30;62.40
80577;DHT22;69937;52.420;10.538;2024-01-30T13:11:37;10.60;61.40
80577;DHT22;69937;52.420;10.538;2024-01-30T13:16:37;11.20;60.30
80577;DHT22;69937;52.420;10.538;2024-01-30T13:21:38;11.70;59.20
80577;DHT22;69937;52.420;10.538;2024-01-30T13:26:38;11.60;59.10
80577;DHT22;69937;52.420;10.538;2024-01-30T13:31:39;11.50;59.60
80577;DHT22;69937;52.420;10.538;2024-01-30T13:36:40;11.20;60.20
80577;DHT22;69937;52.420;10.538;2024-01-30T13:41:42;11.10;60.70
80577;DHT22;69937;52.420;10.538;2024-01-30T13:46:43;11.00;61.10
80577;DHT22;69937;52.420;10.538;2024-01-30T13:51:43;10.90;61.50
80577;DHT22;69937;52.420;10.538;2024-01-30T13:56:44;10.80;61.90
80577;DHT22;69937;52.420;10.538;2024-01-30T14:01:44;10.80;62.10
80577;DHT22;69937;52.420;10.538;2024-01-30T14:06:45;10.80;62.30
80577;DHT22;69937;52.420;10.538;2024-01-30T14:11:45;11.00;61.80
80577;DHT22;69937;52.420;10.538;2024-01-30T14:16:46;11.10;61.70
80577;DHT22;69937;52.420;10.538;2024-01-30T14:21:47;11.00;62.00
80577;DHT22;69937;52.420;10.538;2024-01-30T14:26:47;10.90;62.20
80577;DHT22;69937;52.420;10.538;2024-01-30T14:31:48;10.80;62.60
80577;DHT22;69937;52.420;10.538;2024-01-30T14:36:48;10.70;63.00
80577;DHT22;69937;52.420;10.538;2024-01-30T14:41:49;10.60;63.30
80577;DHT22;69937;52.420;10.538;2024-01-30T14:46:49;10.50;63.30
80577;DHT22;69937;52.420;10.538;2024-01-30T14:51:50;10.50;63.40
80577;DHT22;69937;52.420;10.538;2024-01-30T14:56:50;10.40;63.70
80577;DHT22;69937;52.420;10.538;2024-01-30T15:01:51;10.40;64.00
80577;DHT22;69937;52.420;10.538;2024-01-30T15:06:51;10.30;64.30
80577;DHT22;69937;52.420;10.538;2024-01-30T15:11:52;10.30;64.50
80577;DHT22;69937;52.420;10.538;2024-01-30T15:16:53;10.20;64.40
80577;DHT22;69937;52.420;10.538;2024-01-30T15:21:53;10.10;64.50
80577;DHT22;69937;52.420;10.538;2024-01-30T15:26:54;10.00;64.60
80577;DHT22;69937;52.420;10.538;2024-01-30T15:31:54;10.00;64.70
80577;DHT22;69937;52.420;10.538;2024-01-30T15:36:55;9.90;65.00
80577;DHT22;69937;52.420;10.538;2024-01-30T15:41:55;9.80;65.20
80577;DHT22;69937;52.420;10.538;2024-01-30T15:46:56;9.80;65.50
80577;DHT22;69937;52.420;10.538;2024-01-30T15:51:56;9.80;65.70
80577;DHT22;69937;52.420;10.538;2024-01-30T15:56:57;9.70;65.70
80577;DHT22;69937;52.420;10.538;2024-01-30T16:01:57;9.70;65.70
80577;DHT22;69937;52.420;10.538;2024-01-30T16:06:58;9.60;65.70
80577;DHT22;69937;52.420;10.538;2024-01-30T16:11:59;9.60;65.80
80577;DHT22;69937;52.420;10.538;2024-01-30T16:16:59;9.50;65.90
80577;DHT22;69937;52.420;10.538;2024-01-30T16:22:00;9.60;66.00
80577;DHT22;69937;52.420;10.538;2024-01-30T16:27:00;9.50;66.20
80577;DHT22;69937;52.420;10.538;2024-01-30T16:32:01;9.50;66.30
80577;DHT22;69937;52.420;10.538;2024-01-30T16:37:02;9.50;66.40
80577;DHT22;69937;52.420;10.538;2024-01-30T16:42:03;9.50;66.50
80577;DHT22;69937;52.420;10.538;2024-01-30T16:47:04;9.50;66.50
80577;DHT22;69937;52.420;10.538;2024-01-30T16:52:04;9.50;66.50
80577;DHT22;69937;52.420;10.538;2024-01-30T16:57:05;9.50;66.50
80577;DHT22;69937;52.420;10.538;2024-01-30T17:02:06;9.40;66.60
80577;DHT22;69937;52.420;10.538;2024-01-30T17:07:06;9.40;66.70
80577;DHT22;69937;52.420;10.538;2024-01-30T17:12:07;9.40;66.90
80577;DHT22;69937;52.420;10.538;2024-01-30T17:17:07;9.40;66.90
80577;DHT22;69937;52.420;10.538;2024-01-30T17:22:09;9.40;67.00
80577;DHT22;69937;52.420;10.538;2024-01-30T17:27:13;9.40;67.10
80577;DHT22;69937;52.420;10.538;2024-01-30T17:32:14;9.40;67.20
80577;DHT22;69937;52.420;10.538;2024-01-30T17:37:15;9.40;67.20
80577;DHT22;69937;52.420;10.538;2024-01-30T17:42:15;9.40;67.40
80577;DHT22;69937;52.420;10.538;2024-01-30T17:47:19;9.40;67.50
80577;DHT22;69937;52.420;10.538;2024-01-30T17:52:20;9.40;67.50
80577;DHT22;69937;52.420;10.538;2024-01-30T17:57:21;9.30;67.80
80577;DHT22;69937;52.420;10.538;2024-01-30T18:02:21;9.20;68.10
80577;DHT22;69937;52.420;10.538;2024-01-30T18:07:22;9.20;68.40
80577;DHT22;69937;52.420;10.538;2024-01-30T18:12:22;9.10;68.70
80577;DHT22;69937;52.420;10.538;2024-01-30T18:17:23;9.00;68.90
80577;DHT22;69937;52.420;10.538;2024-01-30T18:22:24;9.00;69.10
80577;DHT22;69937;52.420;10.538;2024-01-30T18:27:24;9.00;69.00
80577;DHT22;69937;52.420;10.538;2024-01-30T18:32:25;9.00;69.00
80577;DHT22;69937;52.420;10.538;2024-01-30T18:37:25;9.00;69.10
80577;DHT22;69937;52.420;10.538;2024-01-30T18:42:26;9.00;69.10
80577;DHT22;69937;52.420;10.538;2024-01-30T18:47:26;9.00;69.30
80577;DHT22;69937;52.420;10.538;2024-01-30T18:52:27;8.90;69.50
80577;DHT22;69937;52.420;10.538;2024-01-30T18:57:27;8.80;69.70
80577;DHT22;69937;52.420;10.538;2024-01-30T19:02:28;8.80;70.00
80577;DHT22;69937;52.420;10.538;2024-01-30T19:07:29;8.70;70.10
80577;DHT22;69937;52.420;10.538;2024-01-30T19:12:29;8.80;70.20
80577;DHT22;69937;52.420;10.538;2024-01-30T19:17:30;8.80;70.20
80577;DHT22;69937;52.420;10.538;2024-01-30T19:22:30;8.80;70.30
80577;DHT22;69937;52.420;10.538;2024-01-30T19:27:31;8.80;70.40
80577;DHT22;69937;52.420;10.538;2024-01-30T19:32:32;8.80;70.50
80577;DHT22;69937;52.420;10.538;2024-01-30T19:37:32;8.90;70.70
80577;DHT22;69937;52.420;10.538;2024-01-30T19:42:35;9.00;70.70
80577;DHT22;69937;52.420;10.538;2024-01-30T19:47:36;9.20;70.60
80577;DHT22;69937;52.420;10.538;2024-01-30T19:52:36;9.20;70.30
80577;DHT22;69937;52.420;10.538;2024-01-30T19:57:39;9.20;69.50
80577;DHT22;69937;52.420;10.538;2024-01-30T20:02:40;9.10;68.60
80577;DHT22;69937;52.420;10.538;2024-01-30T20:07:41;9.00;68.40
80577;DHT22;69937;52.420;10.538;2024-01-30T20:12:41;8.90;67.50
80577;DHT22;69937;52.420;10.538;2024-01-30T20:17:43;8.90;67.00
80577;DHT22;69937;52.420;10.538;2024-01-30T20:22:45;8.80;66.70
80577;DHT22;69937;52.420;10.538;2024-01-30T20:27:47;8.80;65.90
80577;DHT22;69937;52.420;10.538;2024-01-30T20:32:48;8.80;65.80
80577;DHT22;69937;52.420;10.538;2024-01-30T20:37:48;8.70;65.80
80577;DHT22;69937;52.420;10.538;2024-01-30T20:42:49;8.80;65.70
80577;DHT22;69937;52.420;10.538;2024-01-30T20:47:50;8.80;65.40
80577;DHT22;69937;52.420;10.538;2024-01-30T20:52:50;8.80;65.20
80577;DHT22;69937;52.420;10.538;2024-01-30T20:57:51;8.90;65.00
80577;DHT22;69937;52.420;10.538;2024-01-30T21:02:51;8.90;64.90
80577;DHT22;69937;52.420;10.538;2024-01-30T21:07:52;8.90;64.70
80577;DHT22;69937;52.420;10.538;2024-01-30T21:12:53;9.00;64.60
80577;DHT22;69937;52.420;10.538;2024-01-30T21:17:53;9.00;64.50
80577;DHT22;69937;52.420;10.538;2024-01-30T21:22:54;9.00;64.50
80577;DHT22;69937;52.420;10.538;2024-01-30T21:27:55;9.00;64.60
80577;DHT22;69937;52.420;10.538;2024-01-30T21:32:55;9.00;64.80
80577;DHT22;69937;52.420;10.538;2024-01-30T21:37:56;9.00;64.80
80577;DHT22;69937;52.420;10.538;2024-01-30T21:42:57;8.90;64.90
80577;DHT22;69937;52.420;10.538;2024-01-30T21:47:58;8.90;65.30
80577;DHT22;69937;52.420;10.538;2024-01-30T21:52:58;8.90;65.60
80577;DHT22;69937;52.420;10.538;2024-01-30T21:57:59;8.90;65.80
80577;DHT22;69937;52.420;10.538;2024-01-30T22:03:00;8.90;66.00
80577;DHT22;69937;52.420;10.538;2024-01-30T22:08:00;8.90;65.90
80577;DHT22;69937;52.420;10.538;2024-01-30T22:13:01;8.80;66.10
80577;DHT22;69937;52.420;10.538;2024-01-30T22:18:02;8.80;66.50
80577;DHT22;69937;52.420;10.538;2024-01-30T22:23:03;8.80;66.70
80577;DHT22;69937;52.420;10.538;2024-01-30T22:28:03;8.80;67.00
80577;DHT22;69937;52.420;10.538;2024-01-30T22:33:04;8.70;67.40
80577;DHT22;69937;52.420;10.538;2024-01-30T22:38:07;8.70;67.80
80577;DHT22;69937;52.420;10.538;2024-01-30T22:43:09;8.60;68.20
80577;DHT22;69937;52.420;10.538;2024-01-30T22:48:10;8.60;68.60
80577;DHT22;69937;52.420;10.538;2024-01-30T22:53:10;8.50;69.00
80577;DHT22;69937;52.420;10.538;2024-01-30T22:58:11;8.40;69.80
80577;DHT22;69937;52.420;10.538;2024-01-30T23:03:12;8.30;71.20
80577;DHT22;69937;52.420;10.538;2024-01-30T23:08:12;8.20;71.60
80577;DHT22;69937;52.420;10.538;2024-01-30T23:13:13;8.20;71.90
80577;DHT22;69937;52.420;10.538;2024-01-30T23:18:14;8.20;71.90
80577;DHT22;69937;52.420;10.538;2024-01-30T23:23:15;8.20;72.00
80577;DHT22;69937;52.420;10.538;2024-01-30T23:28:15;8.10;72.80
80577;DHT22;69937;52.420;10.538;2024-01-30T23:33:16;8.00;73.20
80577;DHT22;69937;52.420;10.538;2024-01-30T23:38:16;8.00;74.60
80577;DHT22;69937;52.420;10.538;2024-01-30T23:43:17;7.90;74.70
80577;DHT22;69937;52.420;10.538;2024-01-30T23:48:18;7.80;74.80
80577;DHT22;69937;52.420;10.538;2024-01-30T23:53:19;7.70;74.60
80577;DHT22;69937;52.420;10.538;2024-01-30T23:58:19;7.60;74.30
